Main page
METAR-TAF:

METAR-TAF

Airports :

Scatsta, Shetland, Scotland

Scatsta Airport

latitude: 60-26N, longitude: 001-18W, elevation: 22 m

Current weather observation

The report was made 30 minutes ago, at 17:20 UTC
Wind 9 kt from the East/Southeast, varying between East and Southeast
Temperature 8°C
Humidity 66%
Pressure 1015 hPa
Visibility 10 km or more

METAR: EGPM 281720Z AUTO 11009KT 080V140 9999 NCD 08/02 Q1015

Time: 18:50 (17:50 UTC)

Forecast

The report was made 52 minutes ago, at 16:58 UTC
Forecast valid from 28 at 18 UTC to 28 at 20 UTC
Wind 9 kt from the Southeast
Visibility 10 km or more
Scattered clouds at a height of 4000 ft

TAF: EGPM 281658Z 2818/2820 14009KT 9999 SCT040

Weather observations and forecasts of more than 4000 airports (METAR and TAF reports).

The available stations are represented by yellow and red dots on the map.

Hover mouse over dot to see the name of the station.

Then click to see weather observations and forecasts.

To change the map : click on the green buttons with a black cross to zoom in, on the green button with a dash to zoom out, or on the green arrows for adjacent maps.


METAR-TAF: